sensor_id;sensor_type;location;lat;lon;timestamp;P1;P2;P0
44933;PMS3003;30667;43.614;1.442;2023-07-31T00:00:05;6.00;5.00;3.00
44933;PMS3003;30667;43.614;1.442;2023-07-31T00:02:31;7.60;6.80;3.00
44933;PMS3003;30667;43.614;1.442;2023-07-31T00:04:56;8.00;8.00;4.00
44933;PMS3003;30667;43.614;1.442;2023-07-31T00:07:22;9.00;7.75;4.00
44933;PMS3003;30667;43.614;1.442;2023-07-31T00:09:47;10.00;8.00;4.00
44933;PMS3003;30667;43.614;1.442;2023-07-31T00:12:13;8.75;7.75;4.00
44933;PMS3003;30667;43.614;1.442;2023-07-31T00:14:38;7.00;7.00;3.00
44933;PMS3003;30667;43.614;1.442;2023-07-31T00:17:04;6.75;6.00;4.00
44933;PMS3003;30667;43.614;1.442;2023-07-31T00:19:29;7.00;6.50;3.00
44933;PMS3003;30667;43.614;1.442;2023-07-31T00:21:55;7.00;7.00;4.00
44933;PMS3003;30667;43.614;1.442;2023-07-31T00:24:20;7.00;7.00;3.75
44933;PMS3003;30667;43.614;1.442;2023-07-31T00:26:45;8.00;7.25;3.50
44933;PMS3003;30667;43.614;1.442;2023-07-31T00:29:11;8.25;7.25;3.00
44933;PMS3003;30667;43.614;1.442;2023-07-31T00:31:36;7.75;6.25;3.00
44933;PMS3003;30667;43.614;1.442;2023-07-31T00:34:01;7.25;6.75;3.00
44933;PMS3003;30667;43.614;1.442;2023-07-31T00:36:27;6.50;6.50;4.00
44933;PMS3003;30667;43.614;1.442;2023-07-31T00:38:52;6.75;6.25;3.00
44933;PMS3003;30667;43.614;1.442;2023-07-31T00:41:18;8.50;8.50;5.00
44933;PMS3003;30667;43.614;1.442;2023-07-31T00:43:43;6.50;6.00;3.00
44933;PMS3003;30667;43.614;1.442;2023-07-31T00:46:08;8.00;8.00;4.00
44933;PMS3003;30667;43.614;1.442;2023-07-31T00:48:34;7.75;7.00;3.50
44933;PMS3003;30667;43.614;1.442;2023-07-31T00:51:01;8.20;7.80;3.20
44933;PMS3003;30667;43.614;1.442;2023-07-31T00:53:26;7.25;6.25;3.00
44933;PMS3003;30667;43.614;1.442;2023-07-31T00:55:52;6.80;6.00;3.00
44933;PMS3003;30667;43.614;1.442;2023-07-31T00:58:18;7.75;7.75;4.00
44933;PMS3003;30667;43.614;1.442;2023-07-31T01:00:43;7.25;6.00;3.00
44933;PMS3003;30667;43.614;1.442;2023-07-31T01:03:09;6.25;6.25;3.75
44933;PMS3003;30667;43.614;1.442;2023-07-31T01:06:19;7.40;6.40;3.00
44933;PMS3003;30667;43.614;1.442;2023-07-31T01:08:51;6.80;6.80;3.20
44933;PMS3003;30667;43.614;1.442;2023-07-31T01:11:28;9.40;8.60;3.80
44933;PMS3003;30667;43.614;1.442;2023-07-31T01:13:55;7.00;7.00;3.60
44933;PMS3003;30667;43.614;1.442;2023-07-31T01:16:22;6.00;6.00;2.80
44933;PMS3003;30667;43.614;1.442;2023-07-31T01:18:47;8.00;8.00;3.75
44933;PMS3003;30667;43.614;1.442;2023-07-31T01:21:28;7.50;6.75;3.00
44933;PMS3003;30667;43.614;1.442;2023-07-31T01:26:47;9.00;7.80;4.00
44933;PMS3003;30667;43.614;1.442;2023-07-31T01:32:07;8.40;7.40;3.80
44933;PMS3003;30667;43.614;1.442;2023-07-31T01:34:35;8.40;7.00;3.80
44933;PMS3003;30667;43.614;1.442;2023-07-31T01:37:02;10.40;8.40;4.00
44933;PMS3003;30667;43.614;1.442;2023-07-31T01:39:28;8.40;7.80;3.80
44933;PMS3003;30667;43.614;1.442;2023-07-31T01:41:53;7.75;7.25;4.00
44933;PMS3003;30667;43.614;1.442;2023-07-31T01:44:19;9.00;8.00;4.00
44933;PMS3003;30667;43.614;1.442;2023-07-31T01:46:44;9.75;8.00;3.75
44933;PMS3003;30667;43.614;1.442;2023-07-31T01:49:10;8.00;8.00;4.00
44933;PMS3003;30667;43.614;1.442;2023-07-31T01:51:35;6.00;6.00;4.00
44933;PMS3003;30667;43.614;1.442;2023-07-31T01:54:01;9.25;8.00;4.00
44933;PMS3003;30667;43.614;1.442;2023-07-31T01:56:26;9.20;8.60;4.00
44933;PMS3003;30667;43.614;1.442;2023-07-31T01:58:52;7.50;7.25;4.00
44933;PMS3003;30667;43.614;1.442;2023-07-31T02:01:17;8.00;8.00;4.00
44933;PMS3003;30667;43.614;1.442;2023-07-31T02:03:43;7.75;7.25;3.50
44933;PMS3003;30667;43.614;1.442;2023-07-31T02:06:08;8.75;8.00;4.50
44933;PMS3003;30667;43.614;1.442;2023-07-31T02:08:34;6.75;6.75;3.25
44933;PMS3003;30667;43.614;1.442;2023-07-31T02:10:59;8.00;8.00;4.00
44933;PMS3003;30667;43.614;1.442;2023-07-31T02:13:24;8.00;8.00;4.00
44933;PMS3003;30667;43.614;1.442;2023-07-31T02:15:50;9.75;8.00;4.00
44933;PMS3003;30667;43.614;1.442;2023-07-31T02:18:15;8.00;8.00;4.00
44933;PMS3003;30667;43.614;1.442;2023-07-31T02:20:41;10.75;8.00;3.75
44933;PMS3003;30667;43.614;1.442;2023-07-31T02:23:06;8.00;7.50;3.00
44933;PMS3003;30667;43.614;1.442;2023-07-31T02:25:32;8.50;7.50;4.00
44933;PMS3003;30667;43.614;1.442;2023-07-31T02:27:57;8.00;6.75;3.50
44933;PMS3003;30667;43.614;1.442;2023-07-31T02:30:22;11.00;10.00;4.00
44933;PMS3003;30667;43.614;1.442;2023-07-31T02:32:48;8.00;7.75;4.00
44933;PMS3003;30667;43.614;1.442;2023-07-31T02:35:13;11.00;9.00;4.00
44933;PMS3003;30667;43.614;1.442;2023-07-31T02:37:40;8.20;8.00;4.60
44933;PMS3003;30667;43.614;1.442;2023-07-31T02:40:07;7.00;6.40;3.60
44933;PMS3003;30667;43.614;1.442;2023-07-31T02:42:32;9.20;6.80;4.00
44933;PMS3003;30667;43.614;1.442;2023-07-31T02:44:58;10.50;8.25;4.00
44933;PMS3003;30667;43.614;1.442;2023-07-31T02:47:23;8.25;7.50;3.50
44933;PMS3003;30667;43.614;1.442;2023-07-31T02:49:49;8.25;7.25;4.25
44933;PMS3003;30667;43.614;1.442;2023-07-31T02:52:14;7.25;6.25;2.75
44933;PMS3003;30667;43.614;1.442;2023-07-31T02:54:39;6.00;6.00;3.00
44933;PMS3003;30667;43.614;1.442;2023-07-31T02:57:05;7.00;7.00;3.00
44933;PMS3003;30667;43.614;1.442;2023-07-31T02:59:30;7.00;7.00;3.00
44933;PMS3003;30667;43.614;1.442;2023-07-31T03:01:56;9.50;8.00;4.00
44933;PMS3003;30667;43.614;1.442;2023-07-31T03:04:21;9.50;8.50;4.75
44933;PMS3003;30667;43.614;1.442;2023-07-31T03:06:46;8.50;8.50;4.00
44933;PMS3003;30667;43.614;1.442;2023-07-31T03:09:12;9.50;6.50;3.50
44933;PMS3003;30667;43.614;1.442;2023-07-31T03:11:37;11.00;9.00;4.00
44933;PMS3003;30667;43.614;1.442;2023-07-31T03:14:03;6.75;6.00;3.00
44933;PMS3003;30667;43.614;1.442;2023-07-31T03:16:28;7.75;7.50;4.00
44933;PMS3003;30667;43.614;1.442;2023-07-31T03:18:54;9.50;7.00;3.00
44933;PMS3003;30667;43.614;1.442;2023-07-31T03:21:19;7.00;7.00;3.80
44933;PMS3003;30667;43.614;1.442;2023-07-31T03:23:45;8.00;7.00;3.00
44933;PMS3003;30667;43.614;1.442;2023-07-31T03:26:10;9.00;8.00;4.50
44933;PMS3003;30667;43.614;1.442;2023-07-31T03:28:36;7.50;7.00;4.00
44933;PMS3003;30667;43.614;1.442;2023-07-31T03:31:01;8.00;8.00;3.00
44933;PMS3003;30667;43.614;1.442;2023-07-31T03:33:27;7.75;7.25;3.75
44933;PMS3003;30667;43.614;1.442;2023-07-31T03:35:52;7.25;7.00;3.00
44933;PMS3003;30667;43.614;1.442;2023-07-31T03:38:18;8.20;7.80;4.20
44933;PMS3003;30667;43.614;1.442;2023-07-31T03:40:44;7.50;6.25;3.50
44933;PMS3003;30667;43.614;1.442;2023-07-31T03:43:10;7.00;7.00;3.00
44933;PMS3003;30667;43.614;1.442;2023-07-31T03:45:35;7.80;7.60;4.00
44933;PMS3003;30667;43.614;1.442;2023-07-31T03:48:01;9.00;8.25;4.00
44933;PMS3003;30667;43.614;1.442;2023-07-31T03:50:26;6.00;6.00;3.00
44933;PMS3003;30667;43.614;1.442;2023-07-31T03:52:52;7.00;6.00;3.00
44933;PMS3003;30667;43.614;1.442;2023-07-31T03:55:17;9.00;6.75;3.75
44933;PMS3003;30667;43.614;1.442;2023-07-31T03:57:43;7.25;7.00;4.00
44933;PMS3003;30667;43.614;1.442;2023-07-31T04:00:09;7.50;7.25;3.50
44933;PMS3003;30667;43.614;1.442;2023-07-31T04:02:35;6.80;6.80;3.00
44933;PMS3003;30667;43.614;1.442;2023-07-31T04:05:00;7.25;6.25;3.00
44933;PMS3003;30667;43.614;1.442;2023-07-31T04:07:25;8.00;7.00;3.00
44933;PMS3003;30667;43.614;1.442;2023-07-31T04:09:51;7.00;6.00;3.00
44933;PMS3003;30667;43.614;1.442;2023-07-31T04:12:16;7.75;7.00;2.75
44933;PMS3003;30667;43.614;1.442;2023-07-31T04:14:41;8.00;6.25;3.00
44933;PMS3003;30667;43.614;1.442;2023-07-31T04:17:07;6.00;6.00;3.00
44933;PMS3003;30667;43.614;1.442;2023-07-31T04:19:32;10.00;8.75;4.00
44933;PMS3003;30667;43.614;1.442;2023-07-31T04:21:58;10.00;8.00;4.00
44933;PMS3003;30667;43.614;1.442;2023-07-31T04:24:23;7.00;5.75;3.00
44933;PMS3003;30667;43.614;1.442;2023-07-31T04:26:51;8.20;7.60;3.40
44933;PMS3003;30667;43.614;1.442;2023-07-31T04:29:17;7.80;7.00;4.00
44933;PMS3003;30667;43.614;1.442;2023-07-31T04:31:43;8.00;7.00;2.25
44933;PMS3003;30667;43.614;1.442;2023-07-31T04:34:08;7.00;6.75;3.25
44933;PMS3003;30667;43.614;1.442;2023-07-31T04:36:34;10.00;7.75;3.25
44933;PMS3003;30667;43.614;1.442;2023-07-31T04:39:00;8.75;7.25;4.00
44933;PMS3003;30667;43.614;1.442;2023-07-31T04:41:25;8.20;7.40;3.80
44933;PMS3003;30667;43.614;1.442;2023-07-31T04:43:51;9.25;6.00;3.00
44933;PMS3003;30667;43.614;1.442;2023-07-31T04:46:16;8.00;7.00;4.25
44933;PMS3003;30667;43.614;1.442;2023-07-31T04:48:42;8.75;7.75;4.00
44933;PMS3003;30667;43.614;1.442;2023-07-31T04:51:08;7.80;6.00;4.00
44933;PMS3003;30667;43.614;1.442;2023-07-31T04:53:34;7.00;7.00;4.00
44933;PMS3003;30667;43.614;1.442;2023-07-31T04:56:00;8.40;7.60;4.00
44933;PMS3003;30667;43.614;1.442;2023-07-31T04:58:25;9.25;8.00;4.00
44933;PMS3003;30667;43.614;1.442;2023-07-31T05:00:51;8.25;8.00;3.50
44933;PMS3003;30667;43.614;1.442;2023-07-31T05:03:16;7.25;6.00;3.00
44933;PMS3003;30667;43.614;1.442;2023-07-31T05:05:42;8.00;6.25;3.00
44933;PMS3003;30667;43.614;1.442;2023-07-31T05:08:07;8.75;8.00;4.00
44933;PMS3003;30667;43.614;1.442;2023-07-31T05:10:32;9.25;7.25;3.50
44933;PMS3003;30667;43.614;1.442;2023-07-31T05:12:58;9.00;8.50;4.00
44933;PMS3003;30667;43.614;1.442;2023-07-31T05:15:23;9.00;7.50;3.00
44933;PMS3003;30667;43.614;1.442;2023-07-31T05:17:49;7.75;6.00;3.00
44933;PMS3003;30667;43.614;1.442;2023-07-31T05:20:14;7.75;6.75;3.00
44933;PMS3003;30667;43.614;1.442;2023-07-31T05:22:40;7.50;7.00;3.00
44933;PMS3003;30667;43.614;1.442;2023-07-31T05:25:05;7.00;7.00;3.00
44933;PMS3003;30667;43.614;1.442;2023-07-31T05:27:31;7.25;6.75;2.75
44933;PMS3003;30667;43.614;1.442;2023-07-31T05:29:57;7.80;7.00;3.20
44933;PMS3003;30667;43.614;1.442;2023-07-31T05:32:23;6.00;5.25;2.75
44933;PMS3003;30667;43.614;1.442;2023-07-31T05:34:52;10.60;8.40;3.80
44933;PMS3003;30667;43.614;1.442;2023-07-31T05:37:18;8.80;7.80;3.60
44933;PMS3003;30667;43.614;1.442;2023-07-31T05:39:44;8.80;7.20;4.00
44933;PMS3003;30667;43.614;1.442;2023-07-31T05:42:09;6.75;6.00;2.00
44933;PMS3003;30667;43.614;1.442;2023-07-31T05:44:35;7.25;6.00;3.50
44933;PMS3003;30667;43.614;1.442;2023-07-31T05:47:00;7.75;6.25;3.75
44933;PMS3003;30667;43.614;1.442;2023-07-31T05:49:25;8.25;7.25;3.50
44933;PMS3003;30667;43.614;1.442;2023-07-31T05:51:51;7.00;5.75;2.75
44933;PMS3003;30667;43.614;1.442;2023-07-31T05:54:16;7.50;7.00;3.00
44933;PMS3003;30667;43.614;1.442;2023-07-31T05:56:42;9.25;6.25;3.00
44933;PMS3003;30667;43.614;1.442;2023-07-31T05:59:08;8.75;7.00;3.00
44933;PMS3003;30667;43.614;1.442;2023-07-31T06:01:34;6.80;6.80;3.00
44933;PMS3003;30667;43.614;1.442;2023-07-31T06:04:00;9.75;7.75;3.00
44933;PMS3003;30667;43.614;1.442;2023-07-31T06:06:26;7.20;6.80;3.00
44933;PMS3003;30667;43.614;1.442;2023-07-31T06:08:52;9.50;6.75;3.00
44933;PMS3003;30667;43.614;1.442;2023-07-31T06:11:18;6.00;5.50;2.00
44933;PMS3003;30667;43.614;1.442;2023-07-31T06:13:45;10.00;6.80;2.00
44933;PMS3003;30667;43.614;1.442;2023-07-31T06:16:11;7.00;6.80;2.20
44933;PMS3003;30667;43.614;1.442;2023-07-31T06:18:37;8.00;7.00;3.00
44933;PMS3003;30667;43.614;1.442;2023-07-31T06:21:02;7.00;6.00;2.50
44933;PMS3003;30667;43.614;1.442;2023-07-31T06:23:28;8.00;7.50;3.00
44933;PMS3003;30667;43.614;1.442;2023-07-31T06:25:53;8.50;6.75;2.50
44933;PMS3003;30667;43.614;1.442;2023-07-31T06:28:19;8.00;6.75;3.00
44933;PMS3003;30667;43.614;1.442;2023-07-31T06:30:44;6.00;6.00;3.00
44933;PMS3003;30667;43.614;1.442;2023-07-31T06:33:09;9.75;9.00;3.00
44933;PMS3003;30667;43.614;1.442;2023-07-31T06:35:35;8.00;7.25;3.25
44933;PMS3003;30667;43.614;1.442;2023-07-31T06:38:00;7.00;6.50;3.00
44933;PMS3003;30667;43.614;1.442;2023-07-31T06:40:27;6.40;6.00;2.60
44933;PMS3003;30667;43.614;1.442;2023-07-31T06:42:52;7.75;6.00;3.00
44933;PMS3003;30667;43.614;1.442;2023-07-31T06:45:18;6.25;6.25;2.00
44933;PMS3003;30667;43.614;1.442;2023-07-31T06:47:43;6.00;5.00;3.00
44933;PMS3003;30667;43.614;1.442;2023-07-31T06:50:09;9.00;7.75;3.00
44933;PMS3003;30667;43.614;1.442;2023-07-31T06:52:34;6.75;6.75;2.00
44933;PMS3003;30667;43.614;1.442;2023-07-31T06:55:04;6.75;6.50;3.50
44933;PMS3003;30667;43.614;1.442;2023-07-31T06:57:45;7.80;7.00;3.00
44933;PMS3003;30667;43.614;1.442;2023-07-31T07:00:14;7.20;6.20;2.80
44933;PMS3003;30667;43.614;1.442;2023-07-31T07:02:39;7.75;6.00;3.00
44933;PMS3003;30667;43.614;1.442;2023-07-31T07:05:05;7.50;6.75;3.00
44933;PMS3003;30667;43.614;1.442;2023-07-31T07:07:32;7.00;6.00;3.00
44933;PMS3003;30667;43.614;1.442;2023-07-31T07:09:57;7.00;6.75;3.00
44933;PMS3003;30667;43.614;1.442;2023-07-31T07:12:24;6.40;6.40;3.00
44933;PMS3003;30667;43.614;1.442;2023-07-31T07:14:50;9.20;8.00;3.00
44933;PMS3003;30667;43.614;1.442;2023-07-31T07:17:17;6.20;6.20;2.60
44933;PMS3003;30667;43.614;1.442;2023-07-31T07:19:43;5.60;5.00;2.00
44933;PMS3003;30667;43.614;1.442;2023-07-31T07:22:09;6.50;6.00;2.25
44933;PMS3003;30667;43.614;1.442;2023-07-31T07:24:35;5.00;5.00;2.00
44933;PMS3003;30667;43.614;1.442;2023-07-31T07:27:00;8.75;6.50;3.00
44933;PMS3003;30667;43.614;1.442;2023-07-31T07:29:26;7.00;6.00;3.00
44933;PMS3003;30667;43.614;1.442;2023-07-31T07:31:51;5.25;5.00;2.00
44933;PMS3003;30667;43.614;1.442;2023-07-31T07:34:17;7.25;5.25;1.50
44933;PMS3003;30667;43.614;1.442;2023-07-31T07:36:42;6.50;5.75;2.00
44933;PMS3003;30667;43.614;1.442;2023-07-31T07:39:08;6.75;6.00;2.75
44933;PMS3003;30667;43.614;1.442;2023-07-31T07:41:34;5.20;4.20;2.00
44933;PMS3003;30667;43.614;1.442;2023-07-31T07:44:00;6.50;5.50;2.25
44933;PMS3003;30667;43.614;1.442;2023-07-31T07:46:25;6.00;5.50;2.00
44933;PMS3003;30667;43.614;1.442;2023-07-31T07:48:50;6.50;6.00;2.00
44933;PMS3003;30667;43.614;1.442;2023-07-31T07:51:16;6.00;5.25;2.00
44933;PMS3003;30667;43.614;1.442;2023-07-31T07:53:41;5.00;5.00;2.00
44933;PMS3003;30667;43.614;1.442;2023-07-31T07:56:06;7.00;6.50;3.00
44933;PMS3003;30667;43.614;1.442;2023-07-31T07:58:32;5.75;5.75;2.00
44933;PMS3003;30667;43.614;1.442;2023-07-31T08:00:57;8.75;7.00;3.00
44933;PMS3003;30667;43.614;1.442;2023-07-31T08:03:23;7.00;6.00;2.75
44933;PMS3003;30667;43.614;1.442;2023-07-31T08:05:48;7.75;6.25;3.00
44933;PMS3003;30667;43.614;1.442;2023-07-31T08:08:14;7.25;7.00;3.00
44933;PMS3003;30667;43.614;1.442;2023-07-31T08:10:41;8.00;7.00;3.00
44933;PMS3003;30667;43.614;1.442;2023-07-31T08:13:07;6.80;6.80;3.00
44933;PMS3003;30667;43.614;1.442;2023-07-31T08:15:32;8.00;7.00;2.25
44933;PMS3003;30667;43.614;1.442;2023-07-31T08:17:58;6.75;6.25;3.00
44933;PMS3003;30667;43.614;1.442;2023-07-31T08:20:23;7.75;7.00;3.00
44933;PMS3003;30667;43.614;1.442;2023-07-31T08:22:48;8.00;7.00;3.00
44933;PMS3003;30667;43.614;1.442;2023-07-31T08:25:14;5.00;5.00;2.00
44933;PMS3003;30667;43.614;1.442;2023-07-31T08:27:42;8.00;7.00;2.75
44933;PMS3003;30667;43.614;1.442;2023-07-31T08:30:08;7.40;6.00;2.40
44933;PMS3003;30667;43.614;1.442;2023-07-31T08:32:34;8.60;7.80;4.00
44933;PMS3003;30667;43.614;1.442;2023-07-31T08:34:59;7.50;6.00;3.00
44933;PMS3003;30667;43.614;1.442;2023-07-31T08:37:25;6.75;5.75;2.00
44933;PMS3003;30667;43.614;1.442;2023-07-31T08:39:50;8.00;6.00;3.00
44933;PMS3003;30667;43.614;1.442;2023-07-31T08:42:16;6.50;5.00;1.75
44933;PMS3003;30667;43.614;1.442;2023-07-31T08:44:41;6.00;5.50;2.25
44933;PMS3003;30667;43.614;1.442;2023-07-31T08:47:08;7.00;6.60;2.20
44933;PMS3003;30667;43.614;1.442;2023-07-31T08:49:35;5.20;5.20;3.00
44933;PMS3003;30667;43.614;1.442;2023-07-31T08:52:03;5.80;5.60;2.80
44933;PMS3003;30667;43.614;1.442;2023-07-31T08:54:29;7.25;7.00;3.00
44933;PMS3003;30667;43.614;1.442;2023-07-31T08:56:57;7.20;6.60;2.00
44933;PMS3003;30667;43.614;1.442;2023-07-31T08:59:24;6.00;6.00;2.00
44933;PMS3003;30667;43.614;1.442;2023-07-31T09:01:54;9.00;7.00;2.20
44933;PMS3003;30667;43.614;1.442;2023-07-31T09:04:22;5.00;5.00;2.00
44933;PMS3003;30667;43.614;1.442;2023-07-31T09:06:49;7.80;6.00;2.40
44933;PMS3003;30667;43.614;1.442;2023-07-31T09:09:22;6.20;6.00;2.00
44933;PMS3003;30667;43.614;1.442;2023-07-31T09:11:47;6.25;4.50;2.00
44933;PMS3003;30667;43.614;1.442;2023-07-31T09:14:14;6.80;6.60;2.00
44933;PMS3003;30667;43.614;1.442;2023-07-31T09:16:54;6.20;6.20;2.00
44933;PMS3003;30667;43.614;1.442;2023-07-31T09:19:33;3.60;3.60;1.20
44933;PMS3003;30667;43.614;1.442;2023-07-31T09:22:02;4.20;4.00;1.00
44933;PMS3003;30667;43.614;1.442;2023-07-31T09:24:34;5.50;4.50;2.00
44933;PMS3003;30667;43.614;1.442;2023-07-31T09:27:00;5.20;4.00;2.00
44933;PMS3003;30667;43.614;1.442;2023-07-31T09:29:27;3.20;3.00;1.00
44933;PMS3003;30667;43.614;1.442;2023-07-31T09:31:55;4.60;4.00;1.00
44933;PMS3003;30667;43.614;1.442;2023-07-31T09:34:28;4.00;3.60;1.40
44933;PMS3003;30667;43.614;1.442;2023-07-31T09:37:05;4.00;4.00;1.20
44933;PMS3003;30667;43.614;1.442;2023-07-31T09:39:31;6.00;6.00;1.00
44933;PMS3003;30667;43.614;1.442;2023-07-31T09:41:56;5.00;4.00;1.00
44933;PMS3003;30667;43.614;1.442;2023-07-31T09:44:36;6.25;5.00;2.00
44933;PMS3003;30667;43.614;1.442;2023-07-31T09:47:04;4.40;3.80;1.60
44933;PMS3003;30667;43.614;1.442;2023-07-31T09:49:29;5.00;4.75;1.00
44933;PMS3003;30667;43.614;1.442;2023-07-31T09:51:55;5.50;5.50;2.00
44933;PMS3003;30667;43.614;1.442;2023-07-31T09:54:20;6.25;5.00;2.00
44933;PMS3003;30667;43.614;1.442;2023-07-31T09:56:47;5.00;5.00;2.00
44933;PMS3003;30667;43.614;1.442;2023-07-31T09:59:17;3.20;3.00;1.00
44933;PMS3003;30667;43.614;1.442;2023-07-31T10:01:44;5.60;5.60;2.60
44933;PMS3003;30667;43.614;1.442;2023-07-31T10:04:13;5.00;5.00;1.40
44933;PMS3003;30667;43.614;1.442;2023-07-31T10:06:40;3.75;3.75;1.25
44933;PMS3003;30667;43.614;1.442;2023-07-31T10:09:08;5.20;4.80;2.00
44933;PMS3003;30667;43.614;1.442;2023-07-31T10:11:41;7.00;5.00;2.00
44933;PMS3003;30667;43.614;1.442;2023-07-31T10:14:09;5.00;4.00;1.00
44933;PMS3003;30667;43.614;1.442;2023-07-31T10:16:37;3.00;3.00;1.00
44933;PMS3003;30667;43.614;1.442;2023-07-31T10:19:03;4.40;4.00;1.00
44933;PMS3003;30667;43.614;1.442;2023-07-31T10:21:30;6.40;4.40;1.80
44933;PMS3003;30667;43.614;1.442;2023-07-31T10:24:01;5.00;4.00;1.80
44933;PMS3003;30667;43.614;1.442;2023-07-31T10:26:28;5.20;5.00;3.00
44933;PMS3003;30667;43.614;1.442;2023-07-31T10:28:55;5.80;5.00;1.00
44933;PMS3003;30667;43.614;1.442;2023-07-31T10:31:22;6.60;5.40;2.00
44933;PMS3003;30667;43.614;1.442;2023-07-31T10:33:49;5.60;4.20;1.80
44933;PMS3003;30667;43.614;1.442;2023-07-31T10:36:17;6.00;6.00;2.40
44933;PMS3003;30667;43.614;1.442;2023-07-31T10:38:44;5.00;5.00;2.00
44933;PMS3003;30667;43.614;1.442;2023-07-31T10:41:09;3.20;3.20;2.00
44933;PMS3003;30667;43.614;1.442;2023-07-31T10:43:37;4.20;4.00;1.60
44933;PMS3003;30667;43.614;1.442;2023-07-31T10:46:06;5.60;4.40;1.80
44933;PMS3003;30667;43.614;1.442;2023-07-31T10:48:33;5.60;5.60;2.80
44933;PMS3003;30667;43.614;1.442;2023-07-31T10:50:59;5.00;5.00;2.00
44933;PMS3003;30667;43.614;1.442;2023-07-31T10:53:26;4.00;4.00;2.00
44933;PMS3003;30667;43.614;1.442;2023-07-31T10:55:56;6.60;5.20;2.00
44933;PMS3003;30667;43.614;1.442;2023-07-31T10:58:23;5.60;5.40;2.40
44933;PMS3003;30667;43.614;1.442;2023-07-31T11:00:56;6.60;5.00;2.00
44933;PMS3003;30667;43.614;1.442;2023-07-31T11:06:13;5.00;4.00;2.00
44933;PMS3003;30667;43.614;1.442;2023-07-31T11:08:43;8.60;6.20;2.00
44933;PMS3003;30667;43.614;1.442;2023-07-31T11:11:11;5.20;4.20;1.00
44933;PMS3003;30667;43.614;1.442;2023-07-31T11:13:44;7.00;4.80;2.00
44933;PMS3003;30667;43.614;1.442;2023-07-31T11:16:11;5.60;5.20;2.00
44933;PMS3003;30667;43.614;1.442;2023-07-31T11:18:41;4.00;4.00;1.00
44933;PMS3003;30667;43.614;1.442;2023-07-31T11:21:17;5.00;5.00;2.00
44933;PMS3003;30667;43.614;1.442;2023-07-31T11:23:52;6.40;5.00;1.00
44933;PMS3003;30667;43.614;1.442;2023-07-31T11:26:19;5.40;4.00;1.80
44933;PMS3003;30667;43.614;1.442;2023-07-31T11:28:48;3.40;3.40;1.20
44933;PMS3003;30667;43.614;1.442;2023-07-31T11:31:14;4.00;3.80;1.00
44933;PMS3003;30667;43.614;1.442;2023-07-31T11:33:40;4.60;4.40;1.60
44933;PMS3003;30667;43.614;1.442;2023-07-31T11:36:05;6.25;4.25;1.75
44933;PMS3003;30667;43.614;1.442;2023-07-31T11:38:32;4.00;4.00;1.00
44933;PMS3003;30667;43.614;1.442;2023-07-31T11:40:59;3.60;3.60;2.00
44933;PMS3003;30667;43.614;1.442;2023-07-31T11:43:27;6.00;6.00;2.00
44933;PMS3003;30667;43.614;1.442;2023-07-31T11:45:56;4.60;4.20;1.20
44933;PMS3003;30667;43.614;1.442;2023-07-31T11:48:27;4.00;4.00;1.60
44933;PMS3003;30667;43.614;1.442;2023-07-31T11:50:57;4.00;4.00;2.00
44933;PMS3003;30667;43.614;1.442;2023-07-31T11:53:44;4.40;4.00;1.00
44933;PMS3003;30667;43.614;1.442;2023-07-31T11:56:23;3.00;3.00;1.00
44933;PMS3003;30667;43.614;1.442;2023-07-31T11:58:53;3.20;3.00;1.00
44933;PMS3003;30667;43.614;1.442;2023-07-31T12:01:23;3.00;3.00;1.00
44933;PMS3003;30667;43.614;1.442;2023-07-31T12:03:51;5.00;4.80;1.40
44933;PMS3003;30667;43.614;1.442;2023-07-31T12:06:17;3.00;3.00;1.00
44933;PMS3003;30667;43.614;1.442;2023-07-31T12:08:45;6.00;6.00;2.00
44933;PMS3003;30667;43.614;1.442;2023-07-31T12:11:11;6.75;5.00;2.00
44933;PMS3003;30667;43.614;1.442;2023-07-31T12:13:36;6.50;4.50;1.75
44933;PMS3003;30667;43.614;1.442;2023-07-31T12:16:02;7.00;5.00;2.00
44933;PMS3003;30667;43.614;1.442;2023-07-31T12:18:29;4.60;3.00;1.00
44933;PMS3003;30667;43.614;1.442;2023-07-31T12:20:59;4.00;3.80;2.00
44933;PMS3003;30667;43.614;1.442;2023-07-31T12:23:28;4.00;3.20;1.00
44933;PMS3003;30667;43.614;1.442;2023-07-31T12:26:02;5.00;5.00;2.00
44933;PMS3003;30667;43.614;1.442;2023-07-31T12:28:40;5.00;4.80;2.00
44933;PMS3003;30667;43.614;1.442;2023-07-31T12:31:08;3.80;3.00;1.20
44933;PMS3003;30667;43.614;1.442;2023-07-31T12:33:36;4.00;4.00;2.00
44933;PMS3003;30667;43.614;1.442;2023-07-31T12:36:04;3.60;3.40;1.00
44933;PMS3003;30667;43.614;1.442;2023-07-31T12:38:32;4.40;4.00;0.60
44933;PMS3003;30667;43.614;1.442;2023-07-31T12:40:58;4.00;3.00;1.00
44933;PMS3003;30667;43.614;1.442;2023-07-31T12:43:23;3.75;3.00;1.00
44933;PMS3003;30667;43.614;1.442;2023-07-31T12:45:49;4.00;3.00;1.00
44933;PMS3003;30667;43.614;1.442;2023-07-31T12:48:14;4.00;4.00;1.25
44933;PMS3003;30667;43.614;1.442;2023-07-31T12:50:40;4.50;4.00;2.00
44933;PMS3003;30667;43.614;1.442;2023-07-31T12:53:05;4.75;4.00;2.00
44933;PMS3003;30667;43.614;1.442;2023-07-31T12:55:31;5.25;3.75;1.00
44933;PMS3003;30667;43.614;1.442;2023-07-31T12:57:59;4.80;4.00;2.00
44933;PMS3003;30667;43.614;1.442;2023-07-31T13:00:25;4.00;4.00;1.00
44933;PMS3003;30667;43.614;1.442;2023-07-31T13:02:51;4.00;4.00;1.00
44933;PMS3003;30667;43.614;1.442;2023-07-31T13:05:16;3.25;3.25;1.00
44933;PMS3003;30667;43.614;1.442;2023-07-31T13:07:42;4.00;4.00;1.00
44933;PMS3003;30667;43.614;1.442;2023-07-31T13:10:07;6.00;5.00;2.00
44933;PMS3003;30667;43.614;1.442;2023-07-31T13:12:33;6.60;5.00;1.60
44933;PMS3003;30667;43.614;1.442;2023-07-31T13:14:59;4.75;4.00;1.00
44933;PMS3003;30667;43.614;1.442;2023-07-31T13:17:25;4.50;4.50;1.00
44933;PMS3003;30667;43.614;1.442;2023-07-31T13:19:51;4.40;4.40;1.00
44933;PMS3003;30667;43.614;1.442;2023-07-31T13:22:16;6.75;5.50;2.00
44933;PMS3003;30667;43.614;1.442;2023-07-31T13:24:42;4.25;3.75;1.00
44933;PMS3003;30667;43.614;1.442;2023-07-31T13:27:07;4.25;4.00;1.00
44933;PMS3003;30667;43.614;1.442;2023-07-31T13:29:32;5.00;5.00;2.00
44933;PMS3003;30667;43.614;1.442;2023-07-31T13:31:58;5.00;4.50;1.50
44933;PMS3003;30667;43.614;1.442;2023-07-31T13:34:23;4.50;4.50;2.00
44933;PMS3003;30667;43.614;1.442;2023-07-31T13:36:49;5.00;4.00;2.00
44933;PMS3003;30667;43.614;1.442;2023-07-31T13:39:15;4.50;4.50;1.00
44933;PMS3003;30667;43.614;1.442;2023-07-31T13:41:40;4.00;3.00;1.00
44933;PMS3003;30667;43.614;1.442;2023-07-31T13:44:06;4.00;4.00;1.00
44933;PMS3003;30667;43.614;1.442;2023-07-31T13:46:31;7.00;4.00;2.00
44933;PMS3003;30667;43.614;1.442;2023-07-31T13:48:58;4.50;4.50;1.00
44933;PMS3003;30667;43.614;1.442;2023-07-31T13:51:24;4.20;4.20;1.00
44933;PMS3003;30667;43.614;1.442;2023-07-31T13:53:50;5.00;4.00;2.00
44933;PMS3003;30667;43.614;1.442;2023-07-31T13:56:16;4.50;4.50;2.00
44933;PMS3003;30667;43.614;1.442;2023-07-31T13:58:41;5.00;5.00;1.00
44933;PMS3003;30667;43.614;1.442;2023-07-31T14:01:07;4.00;3.50;1.00
44933;PMS3003;30667;43.614;1.442;2023-07-31T14:03:32;5.00;4.00;1.00
44933;PMS3003;30667;43.614;1.442;2023-07-31T14:05:57;5.00;4.00;2.00
44933;PMS3003;30667;43.614;1.442;2023-07-31T14:08:23;4.00;4.00;1.00
44933;PMS3003;30667;43.614;1.442;2023-07-31T14:10:48;5.00;5.00;2.00
44933;PMS3003;30667;43.614;1.442;2023-07-31T14:13:14;4.00;4.00;1.25
44933;PMS3003;30667;43.614;1.442;2023-07-31T14:15:42;4.25;4.25;2.00
44933;PMS3003;30667;43.614;1.442;2023-07-31T14:18:08;6.00;4.80;2.00
44933;PMS3003;30667;43.614;1.442;2023-07-31T14:20:34;4.40;4.40;1.00
44933;PMS3003;30667;43.614;1.442;2023-07-31T14:22:59;5.50;4.00;1.00
44933;PMS3003;30667;43.614;1.442;2023-07-31T14:25:25;5.00;5.00;1.50